createdAt,value
2018-11-12T00:04:42.382Z,100.00
2018-11-12T00:09:47.929Z,100.00
2018-11-12T00:15:06.381Z,100.00
2018-11-12T00:20:26.190Z,100.00
2018-11-12T00:25:33.418Z,100.00
2018-11-12T00:30:34.682Z,100.00
2018-11-12T00:35:34.305Z,100.00
2018-11-12T00:40:47.539Z,100.00
2018-11-12T00:46:01.182Z,100.00
2018-11-12T00:51:19.471Z,100.00
2018-11-12T01:11:40.224Z,100.00
2018-11-12T01:43:58.030Z,100.00
2018-11-12T01:49:41.528Z,100.00
2018-11-12T01:54:44.767Z,100.00
2018-11-12T01:59:54.502Z,100.00
2018-11-12T02:05:19.751Z,100.00
2018-11-12T02:15:50.123Z,100.00
2018-11-12T02:21:11.449Z,100.00
2018-11-12T02:26:10.371Z,100.00
2018-11-12T02:31:20.588Z,100.00
2018-11-12T02:36:31.196Z,100.00
2018-11-12T02:47:10.140Z,100.00
2018-11-12T02:52:15.872Z,100.00
2018-11-12T02:57:24.653Z,100.00
2018-11-12T03:02:58.829Z,100.00
2018-11-12T03:09:20.765Z,100.00
2018-11-12T03:20:15.841Z,100.00
2018-11-12T03:25:38.300Z,100.00
2018-11-12T03:42:00.377Z,100.00
2018-11-12T03:47:34.435Z,100.00
2018-11-12T03:52:48.617Z,100.00
2018-11-12T03:58:05.460Z,100.00
2018-11-12T04:29:55.500Z,100.00
2018-11-12T04:35:07.049Z,100.00
2018-11-12T04:40:30.980Z,100.00
2018-11-12T04:45:36.818Z,100.00
2018-11-12T04:51:04.215Z,100.00
2018-11-12T05:08:05.165Z,100.00
2018-11-12T05:13:40.156Z,100.00
2018-11-12T05:19:02.694Z,100.00
2018-11-12T05:41:39.913Z,100.00
2018-11-12T05:59:39.493Z,100.00
2018-11-12T06:21:37.165Z,100.00
2018-11-12T06:26:54.784Z,100.00
2018-11-12T06:44:01.408Z,100.00
2018-11-12T06:49:25.195Z,100.00
2018-11-12T07:29:37.617Z,100.00
2018-11-12T07:40:10.883Z,100.00
2018-11-12T08:05:44.805Z,100.00
2018-11-12T08:10:59.410Z,100.00
2018-11-12T08:16:15.648Z,100.00
2018-11-12T08:21:19.634Z,100.00
2018-11-12T08:26:17.270Z,100.00
2018-11-12T08:31:15.039Z,100.00
2018-11-12T08:36:11.091Z,100.00
2018-11-12T08:41:08.838Z,100.00
2018-11-12T08:46:03.734Z,100.00
2018-11-12T08:50:58.779Z,100.00
2018-11-12T08:55:53.759Z,100.00
2018-11-12T09:00:48.969Z,100.00
2018-11-12T09:05:45.341Z,100.00
2018-11-12T09:10:40.895Z,100.00
2018-11-12T09:15:38.599Z,100.00
2018-11-12T09:20:34.432Z,100.00
2018-11-12T09:25:33.500Z,100.00
2018-11-12T09:30:47.405Z,100.00
2018-11-12T09:36:00.800Z,100.00
2018-11-12T09:46:13.335Z,100.00
2018-11-12T09:51:21.475Z,100.00
2018-11-12T09:56:20.087Z,100.00
2018-11-12T10:01:15.509Z,100.00
2018-11-12T10:06:14.569Z,100.00
2018-11-12T10:11:11.318Z,100.00
2018-11-12T10:16:07.738Z,100.00
2018-11-12T10:21:00.185Z,100.00
2018-11-12T10:25:59.341Z,100.00
2018-11-12T10:30:54.768Z,100.00
2018-11-12T10:35:50.014Z,100.00
2018-11-12T10:40:45.289Z,100.00
2018-11-12T10:45:41.404Z,100.00
2018-11-12T10:50:36.558Z,100.00
2018-11-12T10:55:31.978Z,100.00
2018-11-12T11:00:33.610Z,99.71
2018-11-12T11:05:28.837Z,99.52
2018-11-12T11:10:27.421Z,96.28
2018-11-12T11:15:24.924Z,97.98
2018-11-12T11:20:24.174Z,97.02
2018-11-12T11:25:19.714Z,96.72
2018-11-12T11:30:16.593Z,93.17
2018-11-12T11:35:13.588Z,88.19
2018-11-12T11:40:13.632Z,92.09
2018-11-12T11:45:10.515Z,91.43
2018-11-12T11:50:06.050Z,88.01
2018-11-12T11:55:03.059Z,88.54
2018-11-12T11:59:58.296Z,85.68
2018-11-12T12:04:53.163Z,86.36
2018-11-12T12:09:48.909Z,85.96
2018-11-12T12:14:44.036Z,86.47
2018-11-12T12:19:39.026Z,85.78
2018-11-12T12:24:34.187Z,83.86
2018-11-12T12:29:29.062Z,84.67
2018-11-12T12:34:24.100Z,82.19
2018-11-12T12:39:18.941Z,83.32
2018-11-12T12:44:13.924Z,86.89
2018-11-12T12:49:08.858Z,84.78
2018-11-12T12:54:04.028Z,83.02
2018-11-12T12:58:59.084Z,88.33
2018-11-12T13:03:54.133Z,88.85
2018-11-12T13:08:57.067Z,89.03
2018-11-12T13:13:52.514Z,85.60
2018-11-12T13:18:48.684Z,85.19
2018-11-12T13:23:44.880Z,82.88
2018-11-12T13:28:41.154Z,84.65
2018-11-12T13:33:36.036Z,86.06
2018-11-12T13:38:35.863Z,85.83
2018-11-12T13:43:31.686Z,87.29
2018-11-12T13:48:32.722Z,93.23
2018-11-12T13:53:49.838Z,91.79
2018-11-12T13:58:57.687Z,90.66
2018-11-12T14:09:16.275Z,91.65
2018-11-12T14:14:20.650Z,93.01
2018-11-12T14:25:17.836Z,94.15
2018-11-12T14:30:20.165Z,93.40
2018-11-12T14:35:22.441Z,92.99
2018-11-12T14:40:21.413Z,94.56
2018-11-12T15:00:59.406Z,99.01
2018-11-12T15:05:59.964Z,100.00
2018-11-12T15:11:00.563Z,100.00
2018-11-12T15:16:08.551Z,100.00
2018-11-12T15:21:12.967Z,100.00
2018-11-12T15:26:12.213Z,100.00
2018-11-12T15:36:16.870Z,100.00
2018-11-12T15:41:15.196Z,100.00
2018-11-12T15:46:13.475Z,100.00
2018-11-12T15:51:14.217Z,100.00
2018-11-12T15:56:11.286Z,100.00
2018-11-12T16:01:11.095Z,100.00
2018-11-12T16:06:07.514Z,100.00
2018-11-12T16:11:02.261Z,100.00
2018-11-12T16:16:00.249Z,100.00
2018-11-12T16:20:56.236Z,100.00
2018-11-12T16:25:51.971Z,100.00
2018-11-12T16:30:46.847Z,100.00
2018-11-12T16:35:42.774Z,100.00
2018-11-12T16:40:38.000Z,100.00
2018-11-12T16:45:33.184Z,100.00
2018-11-12T16:50:28.081Z,100.00
2018-11-12T17:20:04.258Z,100.00
2018-11-12T17:24:59.439Z,100.00
2018-11-12T17:29:56.113Z,100.00
2018-11-12T17:40:27.164Z,100.00
2018-11-12T17:45:23.694Z,100.00
2018-11-12T17:50:18.767Z,100.00
2018-11-12T17:55:14.226Z,100.00
2018-11-12T18:00:21.828Z,100.00
2018-11-12T18:05:16.874Z,100.00
2018-11-12T18:10:13.457Z,100.00
2018-11-12T18:15:19.844Z,100.00
2018-11-12T18:20:26.993Z,100.00
2018-11-12T18:25:26.300Z,100.00
2018-11-12T18:30:23.098Z,100.00
2018-11-12T18:35:17.908Z,100.00
2018-11-12T18:40:15.000Z,100.00
2018-11-12T18:45:14.646Z,100.00
2018-11-12T18:50:13.450Z,100.00
2018-11-12T18:55:09.138Z,100.00
2018-11-12T19:00:13.220Z,100.00
2018-11-12T19:05:29.384Z,100.00
2018-11-12T19:10:25.789Z,100.00
2018-11-12T19:15:22.473Z,100.00
2018-11-12T19:20:17.981Z,100.00
2018-11-12T19:25:13.773Z,100.00
2018-11-12T19:30:14.158Z,100.00
2018-11-12T19:35:11.975Z,100.00
2018-11-12T19:53:30.611Z,100.00
2018-11-12T19:58:27.944Z,100.00
2018-11-12T20:03:23.875Z,100.00
2018-11-12T20:08:19.043Z,100.00
2018-11-12T20:13:16.743Z,100.00
2018-11-12T20:18:15.306Z,100.00
2018-11-12T20:23:20.745Z,100.00
2018-11-12T20:28:19.494Z,100.00
2018-11-12T20:33:15.927Z,100.00
2018-11-12T20:38:23.218Z,100.00
2018-11-12T20:43:22.133Z,100.00
2018-11-12T20:48:42.849Z,100.00
2018-11-12T20:53:38.740Z,100.00
2018-11-12T20:58:33.716Z,100.00
2018-11-12T21:03:28.499Z,100.00
2018-11-12T21:08:23.415Z,100.00
2018-11-12T21:13:18.234Z,100.00
2018-11-12T21:18:13.216Z,100.00
2018-11-12T21:23:09.401Z,100.00
2018-11-12T21:28:04.308Z,100.00
2018-11-12T21:32:59.190Z,100.00
2018-11-12T21:37:56.187Z,100.00
2018-11-12T21:42:53.956Z,100.00
2018-11-12T21:47:51.103Z,100.00
2018-11-12T21:52:50.517Z,100.00
2018-11-12T21:57:51.984Z,100.00
2018-11-12T22:02:48.262Z,100.00
2018-11-12T22:07:43.110Z,100.00
2018-11-12T22:12:37.964Z,100.00
2018-11-12T22:17:32.817Z,100.00
2018-11-12T22:22:27.736Z,100.00
2018-11-12T22:27:22.545Z,100.00
2018-11-12T22:32:27.481Z,100.00
2018-11-12T22:48:08.530Z,100.00
2018-11-12T22:53:03.750Z,100.00
2018-11-12T22:58:01.547Z,100.00
2018-11-12T23:02:57.232Z,100.00
2018-11-12T23:07:53.253Z,100.00
2018-11-12T23:12:48.793Z,100.00
2018-11-12T23:17:53.253Z,100.00
2018-11-12T23:22:52.988Z,100.00
2018-11-12T23:27:49.424Z,100.00
2018-11-12T23:33:31.751Z,100.00
2018-11-12T23:38:27.598Z,100.00
2018-11-12T23:49:54.010Z,100.00
